createdAt,value
2018-12-17T00:00:15.808Z,808.66
2018-12-17T00:01:15.811Z,808.70
2018-12-17T00:02:15.821Z,808.73
2018-12-17T00:03:15.830Z,808.70
2018-12-17T00:04:15.834Z,808.70
2018-12-17T00:05:15.841Z,808.71
2018-12-17T00:06:15.851Z,808.70
2018-12-17T00:07:15.856Z,808.71
2018-12-17T00:08:15.864Z,808.70
2018-12-17T00:09:15.871Z,808.71
2018-12-17T00:10:15.876Z,808.71
2018-12-17T00:11:15.883Z,808.70
2018-12-17T00:12:16.732Z,808.70
2018-12-17T00:13:15.898Z,808.67
2018-12-17T00:14:15.903Z,808.70
2018-12-17T00:15:15.912Z,808.73
2018-12-17T00:16:15.918Z,808.77
2018-12-17T00:17:15.926Z,808.76
2018-12-17T00:18:15.935Z,808.76
2018-12-17T00:19:15.940Z,808.75
2018-12-17T00:20:15.951Z,808.74
2018-12-17T00:21:15.956Z,808.75
2018-12-17T00:22:15.963Z,808.80
2018-12-17T00:23:15.969Z,808.76
2018-12-17T00:24:15.974Z,808.79
2018-12-17T00:25:15.990Z,808.80
2018-12-17T00:26:15.990Z,808.82
2018-12-17T00:27:15.996Z,808.79
2018-12-17T00:28:16.003Z,808.84
2018-12-17T00:29:16.012Z,808.82
2018-12-17T00:30:16.020Z,808.84
2018-12-17T00:31:16.025Z,808.84
2018-12-17T00:32:16.032Z,808.83
2018-12-17T00:33:16.038Z,808.83
2018-12-17T00:34:16.046Z,808.86
2018-12-17T00:35:16.052Z,808.86
2018-12-17T00:36:16.058Z,808.85
2018-12-17T00:37:16.066Z,808.85
2018-12-17T00:38:16.076Z,808.85
2018-12-17T00:39:16.082Z,808.92
2018-12-17T00:40:16.088Z,808.90
2018-12-17T00:41:16.096Z,808.95
2018-12-17T00:42:16.102Z,808.94
2018-12-17T00:43:16.111Z,809.02
2018-12-17T00:44:16.115Z,808.97
2018-12-17T00:45:16.125Z,808.96
2018-12-17T00:46:16.130Z,808.95
2018-12-17T00:47:16.141Z,808.97
2018-12-17T00:48:16.145Z,808.99
2018-12-17T00:49:16.153Z,809.01
2018-12-17T00:50:16.158Z,808.99
2018-12-17T00:51:16.163Z,808.96
2018-12-17T00:52:16.170Z,808.95
2018-12-17T00:53:16.179Z,808.97
2018-12-17T00:54:16.183Z,808.96
2018-12-17T00:55:16.192Z,808.96
2018-12-17T00:56:16.200Z,808.98
2018-12-17T00:57:16.204Z,808.98
2018-12-17T00:58:16.212Z,809.00
2018-12-17T00:59:16.217Z,808.98
2018-12-17T01:00:16.227Z,809.00
2018-12-17T01:01:16.234Z,809.00
2018-12-17T01:02:16.236Z,808.98
2018-12-17T01:03:16.242Z,809.01
2018-12-17T01:04:16.255Z,809.00
2018-12-17T01:05:16.259Z,809.00
2018-12-17T01:06:16.266Z,809.02
2018-12-17T01:07:16.269Z,809.00
2018-12-17T01:08:16.276Z,809.01
2018-12-17T01:09:16.281Z,809.01
2018-12-17T01:10:16.292Z,809.03
2018-12-17T01:11:16.297Z,809.05
2018-12-17T01:12:16.301Z,809.06
2018-12-17T01:13:16.317Z,809.07
2018-12-17T01:14:16.317Z,809.11
2018-12-17T01:15:16.327Z,809.09
2018-12-17T01:16:16.332Z,809.06
2018-12-17T01:17:16.337Z,809.10
2018-12-17T01:18:16.375Z,809.11
2018-12-17T01:19:16.356Z,809.14
2018-12-17T01:20:16.362Z,809.08
2018-12-17T01:21:16.367Z,809.13
2018-12-17T01:22:16.373Z,809.10
2018-12-17T01:23:16.377Z,809.07
2018-12-17T01:24:16.387Z,809.09
2018-12-17T01:25:16.412Z,809.08
2018-12-17T01:26:16.403Z,809.14
2018-12-17T01:27:16.409Z,809.13
2018-12-17T01:28:22.075Z,809.18
2018-12-17T01:29:16.422Z,809.20
2018-12-17T01:30:16.426Z,809.20
2018-12-17T01:31:16.431Z,809.19
2018-12-17T01:32:16.441Z,809.25
2018-12-17T01:33:16.445Z,809.24
2018-12-17T01:34:16.454Z,809.20
2018-12-17T01:35:16.462Z,809.26
2018-12-17T01:36:16.469Z,809.29
2018-12-17T01:37:16.473Z,809.27
2018-12-17T01:38:16.481Z,809.28
2018-12-17T01:39:16.487Z,809.28
2018-12-17T01:40:16.493Z,809.29
2018-12-17T01:41:16.502Z,809.28
2018-12-17T01:42:16.512Z,809.30
2018-12-17T01:43:16.514Z,809.30
2018-12-17T01:44:16.518Z,809.34
2018-12-17T01:45:16.530Z,809.33
2018-12-17T01:46:16.532Z,809.33
2018-12-17T01:47:16.538Z,809.32
2018-12-17T01:48:16.546Z,809.36
2018-12-17T01:49:16.554Z,809.39
2018-12-17T01:50:16.562Z,809.42
2018-12-17T01:51:16.567Z,809.39
2018-12-17T01:52:16.573Z,809.41
2018-12-17T01:53:16.583Z,809.44
2018-12-17T01:54:16.585Z,809.40
2018-12-17T01:55:16.595Z,809.42
2018-12-17T01:56:16.602Z,809.44
2018-12-17T01:57:16.605Z,809.43
2018-12-17T01:58:16.613Z,809.45
2018-12-17T01:59:16.620Z,809.48
2018-12-17T02:00:16.626Z,809.47
2018-12-17T02:01:16.635Z,809.47
2018-12-17T02:02:16.643Z,809.49
2018-12-17T02:03:16.648Z,809.47
2018-12-17T02:04:16.652Z,809.45
2018-12-17T02:05:16.660Z,809.41
2018-12-17T02:06:16.667Z,809.43
2018-12-17T02:07:16.679Z,809.44
2018-12-17T02:08:16.685Z,809.51
2018-12-17T02:09:16.685Z,809.51
2018-12-17T02:10:16.697Z,809.50
2018-12-17T02:11:16.700Z,809.49
2018-12-17T02:12:16.709Z,809.49
2018-12-17T02:13:16.714Z,809.52
2018-12-17T02:14:16.720Z,809.52
2018-12-17T02:15:16.730Z,809.51
2018-12-17T02:16:16.733Z,809.51
2018-12-17T02:17:16.739Z,809.52
2018-12-17T02:18:16.749Z,809.50
2018-12-17T02:19:16.756Z,809.54
2018-12-17T02:20:16.759Z,809.50
2018-12-17T02:21:16.765Z,809.55
2018-12-17T02:22:16.774Z,809.58
2018-12-17T02:23:16.782Z,809.56
2018-12-17T02:24:16.787Z,809.50
2018-12-17T02:25:16.798Z,809.56
2018-12-17T02:26:16.800Z,809.58
2018-12-17T02:27:16.809Z,809.57
2018-12-17T02:28:16.812Z,809.61
2018-12-17T02:29:16.819Z,809.60
2018-12-17T02:30:16.834Z,809.65
2018-12-17T02:31:16.837Z,809.62
2018-12-17T02:32:16.838Z,809.63
2018-12-17T02:33:16.846Z,809.66
2018-12-17T02:34:16.853Z,809.65
2018-12-17T02:35:16.856Z,809.65
2018-12-17T02:36:16.865Z,809.68
2018-12-17T02:37:16.870Z,809.71
2018-12-17T02:38:16.877Z,809.70
2018-12-17T02:39:16.884Z,809.66
2018-12-17T02:40:16.890Z,809.69
2018-12-17T02:41:16.897Z,809.69
2018-12-17T02:42:17.900Z,809.66
2018-12-17T02:43:16.909Z,809.72
2018-12-17T02:44:16.913Z,809.73
2018-12-17T02:45:16.995Z,809.76
2018-12-17T02:46:16.926Z,809.78
2018-12-17T02:47:16.932Z,809.77
2018-12-17T02:48:16.937Z,809.80
2018-12-17T02:49:16.944Z,809.82
2018-12-17T02:50:16.958Z,809.76
2018-12-17T02:51:16.956Z,809.79
2018-12-17T02:52:16.960Z,809.75
2018-12-17T02:53:16.968Z,809.76
2018-12-17T02:54:16.974Z,809.84
2018-12-17T02:55:16.982Z,809.87
2018-12-17T02:56:16.987Z,809.92
2018-12-17T02:57:16.998Z,809.85
2018-12-17T02:58:17.001Z,809.88
2018-12-17T02:59:17.006Z,809.89
2018-12-17T03:00:17.011Z,809.88
2018-12-17T03:01:17.014Z,809.87
2018-12-17T03:02:17.023Z,809.88
2018-12-17T03:03:17.039Z,809.88
2018-12-17T03:04:17.035Z,809.88
2018-12-17T03:05:17.040Z,809.85
2018-12-17T03:06:17.051Z,809.93
2018-12-17T03:07:17.053Z,809.95
2018-12-17T03:08:17.057Z,809.93
2018-12-17T03:09:17.064Z,809.95
2018-12-17T03:10:17.072Z,809.95
2018-12-17T03:11:17.075Z,809.95
2018-12-17T03:12:17.079Z,809.97
2018-12-17T03:13:17.091Z,809.95
2018-12-17T03:14:17.094Z,810.01
2018-12-17T03:15:17.099Z,809.95
2018-12-17T03:16:17.106Z,809.97
2018-12-17T03:17:17.109Z,810.02
2018-12-17T03:18:17.118Z,810.00
2018-12-17T03:19:17.122Z,810.06
2018-12-17T03:20:17.131Z,810.04
2018-12-17T03:21:17.140Z,810.06
2018-12-17T03:22:17.140Z,810.06
2018-12-17T03:23:17.147Z,810.05
2018-12-17T03:24:17.151Z,810.10
2018-12-17T03:25:17.159Z,810.11
2018-12-17T03:26:17.167Z,810.14
2018-12-17T03:27:17.172Z,810.20
2018-12-17T03:28:17.179Z,810.17
2018-12-17T03:29:17.183Z,810.17
2018-12-17T03:30:17.192Z,810.21
2018-12-17T03:31:17.202Z,810.17
2018-12-17T03:32:17.204Z,810.23
2018-12-17T03:33:17.207Z,810.21
2018-12-17T03:34:17.215Z,810.23
2018-12-17T03:35:17.220Z,810.24
2018-12-17T03:36:17.223Z,810.25
2018-12-17T03:37:17.237Z,810.29
2018-12-17T03:38:17.239Z,810.37
2018-12-17T03:39:17.245Z,810.33
2018-12-17T03:40:17.248Z,810.35
2018-12-17T03:41:17.257Z,810.38
2018-12-17T03:42:17.264Z,810.39
2018-12-17T03:43:17.268Z,810.39
2018-12-17T03:44:17.273Z,810.45
2018-12-17T03:45:17.279Z,810.44
2018-12-17T03:46:17.286Z,810.43
2018-12-17T03:47:17.291Z,810.44
2018-12-17T03:48:17.298Z,810.53
2018-12-17T03:49:17.308Z,810.53
2018-12-17T03:50:17.309Z,810.52
2018-12-17T03:51:17.323Z,810.53
2018-12-17T03:52:17.326Z,810.53
2018-12-17T03:53:17.329Z,810.59
2018-12-17T03:54:17.340Z,810.59
2018-12-17T03:55:17.341Z,810.62
2018-12-17T03:56:17.347Z,810.64
2018-12-17T03:57:17.358Z,810.59
2018-12-17T03:58:17.360Z,810.61
2018-12-17T03:59:17.367Z,810.59
2018-12-17T04:00:17.374Z,810.61
2018-12-17T04:01:17.380Z,810.62
2018-12-17T04:02:17.380Z,810.67
2018-12-17T04:03:17.387Z,810.66
2018-12-17T04:04:17.394Z,810.69
2018-12-17T04:05:17.397Z,810.72
2018-12-17T04:06:17.403Z,810.68
2018-12-17T04:07:17.419Z,810.70
2018-12-17T04:08:17.414Z,810.73
2018-12-17T04:09:17.428Z,810.72
2018-12-17T04:10:17.426Z,810.71
2018-12-17T04:11:17.459Z,810.72
2018-12-17T04:12:17.437Z,810.72
2018-12-17T04:13:17.444Z,810.71
2018-12-17T04:14:17.450Z,810.71
2018-12-17T04:15:17.454Z,810.77
2018-12-17T04:16:17.464Z,810.75
2018-12-17T04:17:17.469Z,810.82
2018-12-17T04:18:17.476Z,810.81
2018-12-17T04:19:17.492Z,810.82
2018-12-17T04:20:17.487Z,810.84
2018-12-17T04:21:17.489Z,810.81
2018-12-17T04:22:17.500Z,810.84
2018-12-17T04:23:17.502Z,810.84
2018-12-17T04:24:17.507Z,810.85
2018-12-17T04:25:17.514Z,810.88
2018-12-17T04:26:17.523Z,810.91
2018-12-17T04:27:17.531Z,810.93
2018-12-17T04:28:17.529Z,810.87
2018-12-17T04:29:17.536Z,810.90
2018-12-17T04:30:17.556Z,810.92
2018-12-17T04:31:17.551Z,810.91
2018-12-17T04:32:17.554Z,810.97
2018-12-17T04:33:17.558Z,810.97
2018-12-17T04:34:17.568Z,811.03
2018-12-17T04:35:17.572Z,811.04
2018-12-17T04:36:17.579Z,811.08
2018-12-17T04:37:17.582Z,811.09
2018-12-17T04:38:17.593Z,811.09
2018-12-17T04:39:17.596Z,811.08
2018-12-17T04:40:17.600Z,811.12
2018-12-17T04:41:17.612Z,811.14
2018-12-17T04:42:17.611Z,811.12
2018-12-17T04:43:17.616Z,811.18
2018-12-17T04:44:17.623Z,811.21
2018-12-17T04:45:17.631Z,811.19
2018-12-17T04:46:17.635Z,811.21
2018-12-17T04:47:17.642Z,811.19
2018-12-17T04:48:17.647Z,811.18
2018-12-17T04:49:17.650Z,811.22
2018-12-17T04:50:17.657Z,811.23
2018-12-17T04:51:17.663Z,811.26
2018-12-17T04:52:17.668Z,811.27
2018-12-17T04:53:17.741Z,811.34
2018-12-17T04:54:17.686Z,811.31
2018-12-17T04:55:17.688Z,811.33
2018-12-17T04:56:17.694Z,811.33
2018-12-17T04:57:17.697Z,811.41
2018-12-17T04:58:17.705Z,811.41
2018-12-17T04:59:17.709Z,811.42
2018-12-17T05:00:17.716Z,811.42
2018-12-17T05:01:17.731Z,811.43
2018-12-17T05:02:17.727Z,811.48
2018-12-17T05:03:17.739Z,811.45
2018-12-17T05:04:17.738Z,811.53
2018-12-17T05:05:17.746Z,811.51
2018-12-17T05:06:17.755Z,811.50
2018-12-17T05:07:17.757Z,811.50
2018-12-17T05:08:17.762Z,811.56
2018-12-17T05:09:17.768Z,811.56
2018-12-17T05:10:17.777Z,811.56
2018-12-17T05:11:17.779Z,811.61
2018-12-17T05:12:17.784Z,811.59
2018-12-17T05:13:17.807Z,811.57
2018-12-17T05:14:17.799Z,811.60
2018-12-17T05:15:17.804Z,811.61
2018-12-17T05:16:17.811Z,811.64
2018-12-17T05:17:17.815Z,811.63
2018-12-17T05:18:17.820Z,811.69
2018-12-17T05:19:17.827Z,811.68
2018-12-17T05:20:17.836Z,811.68
2018-12-17T05:21:17.837Z,811.68
2018-12-17T05:22:17.843Z,811.69
2018-12-17T05:23:17.848Z,811.74
2018-12-17T05:24:17.856Z,811.75
2018-12-17T05:25:17.863Z,811.74
2018-12-17T05:26:17.868Z,811.77
2018-12-17T05:27:17.881Z,811.80
2018-12-17T05:28:17.877Z,811.76
2018-12-17T05:29:21.516Z,811.81
2018-12-17T05:30:17.891Z,811.80
2018-12-17T05:31:17.896Z,811.81
2018-12-17T05:32:17.902Z,811.80
2018-12-17T05:33:17.907Z,811.89
2018-12-17T05:34:17.913Z,811.87
2018-12-17T05:35:17.918Z,811.95
2018-12-17T05:36:17.925Z,811.96
2018-12-17T05:37:17.930Z,811.94
2018-12-17T05:38:17.940Z,811.95
2018-12-17T05:39:17.940Z,811.95
2018-12-17T05:40:17.948Z,811.99
2018-12-17T05:41:17.954Z,812.02
2018-12-17T05:42:17.959Z,812.07
2018-12-17T05:43:17.964Z,812.05
2018-12-17T05:44:17.971Z,812.04
2018-12-17T05:45:17.977Z,812.07
2018-12-17T05:46:17.983Z,812.09
2018-12-17T05:47:17.987Z,812.10
2018-12-17T05:48:17.997Z,812.11
2018-12-17T05:49:17.999Z,812.11
2018-12-17T05:50:18.006Z,812.10
2018-12-17T05:51:18.021Z,812.12
2018-12-17T05:52:18.019Z,812.11
2018-12-17T05:53:18.028Z,812.16
2018-12-17T05:54:18.028Z,812.16
2018-12-17T05:55:18.033Z,812.17
2018-12-17T05:56:18.042Z,812.16
2018-12-17T05:57:18.047Z,812.21
2018-12-17T05:58:18.055Z,812.20
2018-12-17T05:59:18.056Z,812.23
2018-12-17T06:00:18.147Z,812.23
2018-12-17T06:01:18.068Z,812.27
2018-12-17T06:02:18.079Z,812.29
2018-12-17T06:03:18.084Z,812.32
2018-12-17T06:04:18.086Z,812.36
2018-12-17T06:05:18.093Z,812.38
2018-12-17T06:06:18.096Z,812.42
2018-12-17T06:07:18.103Z,812.41
2018-12-17T06:08:18.110Z,812.40
2018-12-17T06:09:18.114Z,812.47
2018-12-17T06:10:18.121Z,812.44
2018-12-17T06:11:18.131Z,812.48
2018-12-17T06:12:18.135Z,812.47
2018-12-17T06:13:18.139Z,812.49
2018-12-17T06:14:18.146Z,812.50
2018-12-17T06:15:18.151Z,812.49
2018-12-17T06:16:18.156Z,812.51
2018-12-17T06:17:18.217Z,812.53
2018-12-17T06:18:18.167Z,812.57
2018-12-17T06:19:18.175Z,812.56
2018-12-17T06:20:18.180Z,812.56
2018-12-17T06:21:18.186Z,812.56
2018-12-17T06:22:18.192Z,812.57
2018-12-17T06:23:18.197Z,812.65
2018-12-17T06:24:18.202Z,812.66
2018-12-17T06:25:18.208Z,812.66
2018-12-17T06:26:18.217Z,812.74
2018-12-17T06:27:18.220Z,812.69
2018-12-17T06:28:18.225Z,812.73
2018-12-17T06:29:18.232Z,812.78
2018-12-17T06:30:18.238Z,812.74
2018-12-17T06:31:18.245Z,812.79
2018-12-17T06:32:18.248Z,812.78
2018-12-17T06:33:18.254Z,812.73
2018-12-17T06:34:18.263Z,812.79
2018-12-17T06:35:18.267Z,812.79
2018-12-17T06:36:18.271Z,812.83
2018-12-17T06:37:18.278Z,812.83
2018-12-17T06:38:18.283Z,812.90
2018-12-17T06:39:18.321Z,812.91
2018-12-17T06:40:18.295Z,812.93
2018-12-17T06:41:18.300Z,812.94
2018-12-17T06:42:18.309Z,812.93
2018-12-17T06:43:18.316Z,812.93
2018-12-17T06:44:18.320Z,812.96
2018-12-17T06:45:18.328Z,812.95
2018-12-17T06:46:18.332Z,813.00
2018-12-17T06:47:18.336Z,813.01
2018-12-17T06:48:18.349Z,813.02
2018-12-17T06:49:18.350Z,813.01
2018-12-17T06:50:18.356Z,813.04
2018-12-17T06:51:18.358Z,813.01
2018-12-17T06:52:18.365Z,813.04
2018-12-17T06:53:18.370Z,813.02
2018-12-17T06:54:18.382Z,813.08
2018-12-17T06:55:18.388Z,813.10
2018-12-17T06:56:18.388Z,813.10
2018-12-17T06:57:18.394Z,813.11
2018-12-17T06:58:18.400Z,813.13
2018-12-17T06:59:18.407Z,813.13
2018-12-17T07:00:18.413Z,813.14
2018-12-17T07:01:18.419Z,813.16
2018-12-17T07:02:18.424Z,813.17
2018-12-17T07:03:18.429Z,813.20
2018-12-17T07:04:18.437Z,813.21
2018-12-17T07:05:18.441Z,813.21
2018-12-17T07:06:18.447Z,813.23
2018-12-17T07:07:18.457Z,813.22
2018-12-17T07:08:18.457Z,813.23
2018-12-17T07:09:18.470Z,813.28
2018-12-17T07:10:18.469Z,813.29
2018-12-17T07:11:18.477Z,813.30
2018-12-17T07:12:18.480Z,813.38
2018-12-17T07:13:18.488Z,813.38
2018-12-17T07:14:18.493Z,813.43
2018-12-17T07:15:18.500Z,813.41
2018-12-17T07:16:18.506Z,813.44
2018-12-17T07:17:18.511Z,813.45
2018-12-17T07:18:18.516Z,813.49
2018-12-17T07:19:18.524Z,813.47
2018-12-17T07:20:18.528Z,813.49
2018-12-17T07:21:18.532Z,813.51
2018-12-17T07:22:18.542Z,813.51
2018-12-17T07:23:18.545Z,813.54
2018-12-17T07:24:18.550Z,813.57
2018-12-17T07:25:18.560Z,813.58
2018-12-17T07:26:18.571Z,813.63
2018-12-17T07:27:18.566Z,813.62
2018-12-17T07:28:18.574Z,813.66
2018-12-17T07:29:18.580Z,813.66
2018-12-17T07:30:18.588Z,813.71
2018-12-17T07:31:18.591Z,813.74
2018-12-17T07:32:18.779Z,813.73
2018-12-17T07:33:18.603Z,813.73
2018-12-17T07:34:18.609Z,813.76
2018-12-17T07:35:18.616Z,813.80
2018-12-17T07:36:18.621Z,813.78
2018-12-17T07:37:18.629Z,813.81
2018-12-17T07:38:18.635Z,813.80
2018-12-17T07:39:18.636Z,813.87
2018-12-17T07:40:18.641Z,813.89
2018-12-17T07:41:18.676Z,813.89
2018-12-17T07:42:18.655Z,813.93
2018-12-17T07:43:18.657Z,813.94
2018-12-17T07:44:18.665Z,813.92
2018-12-17T07:45:18.672Z,813.98
2018-12-17T07:46:18.678Z,814.01
2018-12-17T07:47:18.695Z,813.96
2018-12-17T07:48:18.686Z,814.00
2018-12-17T07:49:18.691Z,814.01
2018-12-17T07:50:18.698Z,814.05
2018-12-17T07:51:18.704Z,814.04
2018-12-17T07:52:18.710Z,814.05
2018-12-17T07:53:18.719Z,814.04
2018-12-17T07:54:18.722Z,814.05
2018-12-17T07:55:18.728Z,814.08
2018-12-17T07:56:18.738Z,814.15
2018-12-17T07:57:18.739Z,814.17
2018-12-17T07:58:18.745Z,814.26
2018-12-17T07:59:18.749Z,814.28
2018-12-17T08:00:18.754Z,814.32
2018-12-17T08:01:18.763Z,814.39
2018-12-17T08:02:18.768Z,814.38
2018-12-17T08:03:18.772Z,814.46
2018-12-17T08:04:18.778Z,814.49
2018-12-17T08:05:18.784Z,814.50
2018-12-17T08:06:18.791Z,814.53
2018-12-17T08:07:18.797Z,814.53
2018-12-17T08:08:18.803Z,814.56
2018-12-17T08:09:18.806Z,814.54
2018-12-17T08:10:18.815Z,814.55
2018-12-17T08:11:18.828Z,814.56
2018-12-17T08:12:18.824Z,814.57
2018-12-17T08:13:18.831Z,814.58
2018-12-17T08:14:18.840Z,814.62
2018-12-17T08:15:18.842Z,814.63
2018-12-17T08:16:18.847Z,814.66
2018-12-17T08:17:18.856Z,814.65
2018-12-17T08:18:18.861Z,814.66
2018-12-17T08:19:18.866Z,814.70
2018-12-17T08:20:18.873Z,814.72
2018-12-17T08:21:18.878Z,814.79
2018-12-17T08:22:18.886Z,814.81
2018-12-17T08:23:18.888Z,814.84
2018-12-17T08:24:18.894Z,814.83
2018-12-17T08:25:18.901Z,814.81
2018-12-17T08:26:18.906Z,814.84
2018-12-17T08:27:18.913Z,814.85
2018-12-17T08:28:18.917Z,814.93
2018-12-17T08:29:18.924Z,814.91
2018-12-17T08:30:18.930Z,814.88
2018-12-17T08:31:18.935Z,814.93
2018-12-17T08:32:18.944Z,814.89
2018-12-17T08:33:18.950Z,814.90
2018-12-17T08:34:18.956Z,814.95
2018-12-17T08:35:18.961Z,814.94
2018-12-17T08:36:18.967Z,814.97
2018-12-17T08:37:18.970Z,815.00
2018-12-17T08:38:18.978Z,815.01
2018-12-17T08:39:18.986Z,815.06
2018-12-17T08:40:18.989Z,815.05
2018-12-17T08:41:18.994Z,815.08
2018-12-17T08:42:19.000Z,815.03
2018-12-17T08:43:19.007Z,815.06
2018-12-17T08:44:19.012Z,815.11
2018-12-17T08:45:19.019Z,815.08
2018-12-17T08:46:19.024Z,815.15
2018-12-17T08:47:19.032Z,815.17
2018-12-17T08:48:19.036Z,815.19
2018-12-17T08:49:19.041Z,815.22
2018-12-17T08:50:19.053Z,815.24
2018-12-17T08:51:19.055Z,815.28
2018-12-17T08:52:19.062Z,815.29
2018-12-17T08:53:19.067Z,815.34
2018-12-17T08:54:19.072Z,815.34
2018-12-17T08:55:19.078Z,815.32
2018-12-17T08:56:19.085Z,815.36
2018-12-17T08:57:19.092Z,815.37
2018-12-17T08:58:19.096Z,815.35
2018-12-17T08:59:19.102Z,815.39
2018-12-17T09:00:19.108Z,815.40
2018-12-17T09:01:19.112Z,815.41
2018-12-17T09:02:19.121Z,815.46
2018-12-17T09:03:19.129Z,815.49
2018-12-17T09:04:19.133Z,815.49
2018-12-17T09:05:19.137Z,815.53
2018-12-17T09:06:19.144Z,815.55
2018-12-17T09:07:19.152Z,815.60
2018-12-17T09:08:19.155Z,815.62
2018-12-17T09:09:19.163Z,815.65
2018-12-17T09:10:19.169Z,815.72
2018-12-17T09:11:19.175Z,815.70
2018-12-17T09:12:19.183Z,815.68
2018-12-17T09:13:19.205Z,815.73
2018-12-17T09:14:19.193Z,815.70
2018-12-17T09:15:19.200Z,815.73
2018-12-17T09:16:19.208Z,815.73
2018-12-17T09:17:19.212Z,815.76
2018-12-17T09:18:19.219Z,815.76
2018-12-17T09:19:19.225Z,815.77
2018-12-17T09:20:19.230Z,815.79
2018-12-17T09:21:19.237Z,815.82
2018-12-17T09:22:19.245Z,815.84
2018-12-17T09:23:19.250Z,815.86
2018-12-17T09:24:19.259Z,815.87
2018-12-17T09:25:19.262Z,815.92
2018-12-17T09:26:19.269Z,815.94
2018-12-17T09:27:19.277Z,815.93
2018-12-17T09:28:19.285Z,815.91
2018-12-17T09:29:19.289Z,815.92
2018-12-17T09:30:19.298Z,815.94
2018-12-17T09:31:19.304Z,815.97
2018-12-17T09:32:19.310Z,815.97
2018-12-17T09:33:19.317Z,815.96
2018-12-17T09:34:19.331Z,815.99
2018-12-17T09:35:19.334Z,815.99
2018-12-17T09:36:19.338Z,816.02
2018-12-17T09:37:19.345Z,816.01
2018-12-17T09:38:19.359Z,816.04
2018-12-17T09:39:19.360Z,816.02
2018-12-17T09:40:19.367Z,816.04
2018-12-17T09:41:19.373Z,816.04
2018-12-17T09:42:19.380Z,816.02
2018-12-17T09:43:19.387Z,816.04
2018-12-17T09:44:19.393Z,816.07
2018-12-17T09:45:19.409Z,816.06
2018-12-17T09:46:19.408Z,816.04
2018-12-17T09:47:19.416Z,816.08
2018-12-17T09:48:19.401Z,816.08
2018-12-17T09:49:19.408Z,816.07
2018-12-17T09:50:19.415Z,816.11
2018-12-17T09:51:19.880Z,816.06
2018-12-17T09:52:19.449Z,816.12
2018-12-17T09:53:19.461Z,816.08
2018-12-17T09:54:19.464Z,816.14
2018-12-17T09:55:19.470Z,816.08
2018-12-17T09:56:19.479Z,816.15
2018-12-17T09:57:19.486Z,816.13
2018-12-17T09:58:19.492Z,816.11
2018-12-17T09:59:19.503Z,816.17
2018-12-17T10:00:25.327Z,816.14
2018-12-17T10:01:19.513Z,816.14
2018-12-17T10:02:19.522Z,816.11
2018-12-17T10:03:19.527Z,816.15
2018-12-17T10:04:19.537Z,816.13
2018-12-17T10:05:19.541Z,816.17
2018-12-17T10:06:19.549Z,816.14
2018-12-17T10:07:19.556Z,816.18
2018-12-17T10:08:19.562Z,816.17
2018-12-17T10:09:19.569Z,816.16
2018-12-17T10:10:19.580Z,816.14
2018-12-17T10:11:19.586Z,816.18
2018-12-17T10:12:19.598Z,816.17
2018-12-17T10:13:19.605Z,816.16
2018-12-17T10:14:19.608Z,816.16
2018-12-17T10:15:19.618Z,816.14
2018-12-17T10:16:19.626Z,816.14
2018-12-17T10:17:19.632Z,816.14
2018-12-17T10:18:19.638Z,816.15
2018-12-17T10:19:19.644Z,816.15
2018-12-17T10:20:19.651Z,816.13
2018-12-17T10:21:19.662Z,816.16
2018-12-17T10:22:19.668Z,816.20
2018-12-17T10:23:19.675Z,816.18
2018-12-17T10:24:19.683Z,816.17
2018-12-17T10:25:19.690Z,816.19
2018-12-17T10:26:19.701Z,816.20
2018-12-17T10:27:19.703Z,816.18
2018-12-17T10:28:19.711Z,816.14
2018-12-17T10:29:19.721Z,816.15
2018-12-17T10:30:19.726Z,816.15
2018-12-17T10:31:19.734Z,816.16
2018-12-17T10:32:19.743Z,816.14
2018-12-17T10:33:19.748Z,816.11
2018-12-17T10:34:19.755Z,816.14
2018-12-17T10:35:19.764Z,816.16
2018-12-17T10:36:19.770Z,816.14
2018-12-17T10:37:19.782Z,816.11
2018-12-17T10:38:19.787Z,816.12
2018-12-17T10:39:19.793Z,816.11
2018-12-17T10:40:19.800Z,816.10
2018-12-17T10:41:19.810Z,816.17
2018-12-17T10:42:19.815Z,816.21
2018-12-17T10:43:19.822Z,816.21
2018-12-17T10:44:19.831Z,816.21
2018-12-17T10:45:19.837Z,816.23
2018-12-17T10:46:19.845Z,816.24
2018-12-17T10:47:19.854Z,816.25
2018-12-17T10:48:19.860Z,816.24
2018-12-17T10:49:19.867Z,816.26
2018-12-17T10:50:19.874Z,816.26
2018-12-17T10:51:19.885Z,816.27
2018-12-17T10:52:19.889Z,816.29
2018-12-17T10:53:19.896Z,816.33
2018-12-17T10:54:19.907Z,816.32
2018-12-17T10:55:19.914Z,816.25
2018-12-17T10:56:19.918Z,816.31
2018-12-17T10:57:19.934Z,816.31
2018-12-17T10:58:19.940Z,816.30
2018-12-17T10:59:19.943Z,816.31
2018-12-17T11:00:19.950Z,816.33
2018-12-17T11:01:19.961Z,816.28
2018-12-17T11:02:19.968Z,816.30
2018-12-17T11:03:19.976Z,816.32
2018-12-17T11:04:19.977Z,816.35
2018-12-17T11:05:19.987Z,816.38
2018-12-17T11:06:19.995Z,816.39
2018-12-17T11:07:20.005Z,816.38
2018-12-17T11:08:20.010Z,816.42
2018-12-17T11:09:20.017Z,816.40
2018-12-17T11:10:20.028Z,816.40
2018-12-17T11:11:20.035Z,816.38
2018-12-17T11:12:20.038Z,816.38
2018-12-17T11:13:20.049Z,816.38
2018-12-17T11:14:20.053Z,816.37
2018-12-17T11:15:20.061Z,816.32
2018-12-17T11:16:20.068Z,816.37
2018-12-17T11:17:20.075Z,816.38
2018-12-17T11:18:20.085Z,816.39
2018-12-17T11:19:20.092Z,816.41
2018-12-17T11:20:20.100Z,816.40
2018-12-17T11:21:20.110Z,816.43
2018-12-17T11:22:20.116Z,816.44
2018-12-17T11:23:20.122Z,816.46
2018-12-17T11:24:20.130Z,816.41
2018-12-17T11:25:20.139Z,816.45
2018-12-17T11:26:20.145Z,816.43
2018-12-17T11:27:20.158Z,816.43
2018-12-17T11:28:20.161Z,816.45
2018-12-17T11:29:20.168Z,816.44
2018-12-17T11:30:20.175Z,816.50
2018-12-17T11:31:20.183Z,816.48
2018-12-17T11:32:20.191Z,816.48
2018-12-17T11:33:20.199Z,816.49
2018-12-17T11:34:20.210Z,816.52
2018-12-17T11:35:20.221Z,816.56
2018-12-17T11:36:20.228Z,816.55
2018-12-17T11:37:20.231Z,816.57
2018-12-17T11:38:20.238Z,816.58
2018-12-17T11:39:20.245Z,816.62
2018-12-17T11:40:20.263Z,816.61
2018-12-17T11:41:20.262Z,816.65
2018-12-17T11:42:20.271Z,816.65
2018-12-17T11:43:20.285Z,816.61
2018-12-17T11:44:20.285Z,816.60
2018-12-17T11:45:20.292Z,816.60
2018-12-17T11:46:20.302Z,816.57
2018-12-17T11:47:20.310Z,816.66
2018-12-17T11:48:20.319Z,816.67
2018-12-17T11:49:20.325Z,816.66
2018-12-17T11:50:20.334Z,816.71
2018-12-17T11:51:20.362Z,816.70
2018-12-17T11:52:20.349Z,816.74
2018-12-17T11:53:20.366Z,816.75
2018-12-17T11:54:20.365Z,816.70
2018-12-17T11:55:20.374Z,816.75
2018-12-17T11:56:20.382Z,816.72
2018-12-17T11:57:20.389Z,816.76
2018-12-17T11:58:20.399Z,816.74
2018-12-17T11:59:20.410Z,816.76
2018-12-17T12:00:20.413Z,816.78
2018-12-17T12:01:20.424Z,816.80
2018-12-17T12:02:20.433Z,816.83
2018-12-17T12:03:20.439Z,816.81
2018-12-17T12:04:20.447Z,816.80
2018-12-17T12:05:20.458Z,816.81
2018-12-17T12:06:20.465Z,816.78
2018-12-17T12:07:20.473Z,816.84
2018-12-17T12:08:20.487Z,816.83
2018-12-17T12:09:20.492Z,816.78
2018-12-17T12:10:20.498Z,816.80
2018-12-17T12:11:20.509Z,816.81
2018-12-17T12:12:20.516Z,816.78
2018-12-17T12:13:20.526Z,816.78
2018-12-17T12:14:20.534Z,816.80
2018-12-17T12:15:20.545Z,816.82
2018-12-17T12:16:20.552Z,816.87
2018-12-17T12:17:20.573Z,816.86
2018-12-17T12:18:20.570Z,816.89
2018-12-17T12:19:20.582Z,816.86
2018-12-17T12:20:20.589Z,816.89
2018-12-17T12:21:20.601Z,816.85
2018-12-17T12:22:20.617Z,816.87
2018-12-17T12:23:20.619Z,816.84
2018-12-17T12:24:20.632Z,816.81
2018-12-17T12:25:20.640Z,816.85
2018-12-17T12:26:20.653Z,816.83
2018-12-17T12:27:20.661Z,816.87
2018-12-17T12:28:20.673Z,816.78